createdAt,value
2022-09-12T00:02:42.253Z,1.20
2022-09-12T00:07:44.248Z,1.40
2022-09-12T00:12:46.343Z,1.10
2022-09-12T00:17:48.404Z,1.10
2022-09-12T00:22:50.634Z,1.17
2022-09-12T00:27:52.899Z,0.90
2022-09-12T00:32:54.971Z,1.10
2022-09-12T00:37:56.976Z,1.20
2022-09-12T00:42:59.296Z,1.02
2022-09-12T00:48:04.692Z,0.95
2022-09-12T00:53:09.274Z,1.10
2022-09-12T00:58:17.267Z,1.13
2022-09-12T01:03:23.120Z,1.15
2022-09-12T01:08:26.204Z,1.00
2022-09-12T01:13:29.008Z,1.23
2022-09-12T01:18:49.912Z,1.10
2022-09-12T01:24:10.787Z,1.10
2022-09-12T01:29:33.206Z,1.20
2022-09-12T01:34:56.624Z,1.20
2022-09-12T01:40:39.239Z,1.00
2022-09-12T01:45:49.496Z,1.20
2022-09-12T01:51:17.073Z,1.02
2022-09-12T01:56:26.225Z,1.10
2022-09-12T02:01:31.358Z,1.20
2022-09-12T02:06:41.168Z,1.10
2022-09-12T02:11:44.946Z,1.10
2022-09-12T02:16:51.354Z,1.30
2022-09-12T02:22:03.011Z,1.40
2022-09-12T02:27:14.204Z,1.00
2022-09-12T02:32:22.411Z,1.05
2022-09-12T02:37:51.641Z,1.00
2022-09-12T02:42:53.925Z,1.13
2022-09-12T02:48:21.100Z,0.93
2022-09-12T02:58:30.096Z,0.75
2022-09-12T03:03:34.668Z,1.10
2022-09-12T03:09:25.754Z,1.10
2022-09-12T03:14:42.696Z,0.95
2022-09-12T03:19:52.604Z,0.90
2022-09-12T03:25:01.003Z,0.93
2022-09-12T03:30:06.389Z,1.00
2022-09-12T03:35:08.774Z,1.00
2022-09-12T03:40:12.303Z,0.88
2022-09-12T03:45:14.624Z,0.90
2022-09-12T03:50:16.813Z,1.00
2022-09-12T03:55:18.977Z,1.10
2022-09-12T04:00:21.739Z,1.00
2022-09-12T04:05:24.994Z,0.82
2022-09-12T04:10:27.152Z,0.95
2022-09-12T04:15:29.131Z,0.90
2022-09-12T04:20:31.212Z,1.00
2022-09-12T04:25:33.176Z,0.90
2022-09-12T04:30:35.705Z,0.77
2022-09-12T04:35:37.738Z,0.90
2022-09-12T04:40:40.266Z,1.00
2022-09-12T04:45:42.420Z,1.10
2022-09-12T04:50:44.535Z,1.27
2022-09-12T04:55:46.662Z,0.95
2022-09-12T05:00:49.187Z,1.10
2022-09-12T05:05:54.542Z,1.00
2022-09-12T05:11:06.298Z,0.90
2022-09-12T05:16:11.596Z,0.90
2022-09-12T05:21:16.605Z,0.90
2022-09-12T05:26:20.778Z,1.13
2022-09-12T05:31:27.600Z,0.90
2022-09-12T05:36:31.072Z,1.00
2022-09-12T05:41:34.260Z,0.88
2022-09-12T05:46:41.416Z,1.08
2022-09-12T05:51:45.900Z,1.10
2022-09-12T05:56:49.207Z,1.20
2022-09-12T06:01:52.549Z,1.10
2022-09-12T06:06:54.640Z,1.13
2022-09-12T06:11:56.833Z,0.90
2022-09-12T06:16:59.264Z,1.25
2022-09-12T06:22:01.894Z,1.40
2022-09-12T06:27:04.076Z,1.40
2022-09-12T06:32:07.542Z,1.13
2022-09-12T06:37:09.792Z,1.27
2022-09-12T06:42:12.953Z,1.30
2022-09-12T06:52:16.877Z,1.40
2022-09-12T06:57:18.970Z,1.10
2022-09-12T07:02:21.045Z,1.45
2022-09-12T07:07:23.293Z,1.20
2022-09-12T07:12:25.591Z,1.42
2022-09-12T07:17:27.608Z,1.35
2022-09-12T07:22:29.684Z,1.52
2022-09-12T07:27:31.763Z,1.45
2022-09-12T07:32:34.163Z,1.48
2022-09-12T07:37:36.299Z,1.38
2022-09-12T07:42:38.519Z,1.90
2022-09-12T07:47:41.046Z,4.03
2022-09-12T07:52:43.092Z,4.20
2022-09-12T07:57:45.112Z,2.22
2022-09-12T08:02:52.004Z,2.60
2022-09-12T08:07:57.653Z,1.58
2022-09-12T08:13:00.159Z,1.35
2022-09-12T08:18:02.500Z,1.40
2022-09-12T08:23:04.621Z,1.58
2022-09-12T08:28:06.736Z,1.05
2022-09-12T08:33:08.821Z,1.38
2022-09-12T08:38:11.076Z,1.10
2022-09-12T08:43:29.853Z,1.48
2022-09-12T08:48:32.281Z,1.38
2022-09-12T08:53:36.203Z,1.33
2022-09-12T08:58:43.732Z,1.10
2022-09-12T09:03:54.873Z,1.10
2022-09-12T09:09:14.656Z,1.33
2022-09-12T09:14:42.606Z,1.42
2022-09-12T09:19:52.450Z,0.90
2022-09-12T09:25:01.879Z,1.60
2022-09-12T09:30:04.454Z,1.00
2022-09-12T09:35:17.404Z,1.08
2022-09-12T09:40:28.525Z,1.13
2022-09-12T09:45:31.128Z,1.10
2022-09-12T09:50:33.956Z,1.00
2022-09-12T09:55:42.531Z,0.73
2022-09-12T10:00:44.780Z,0.85
2022-09-12T10:05:46.841Z,0.93
2022-09-12T10:10:59.273Z,1.08
2022-09-12T10:16:05.555Z,1.20
2022-09-12T10:21:36.009Z,1.00
2022-09-12T10:26:40.782Z,0.85
2022-09-12T10:31:51.330Z,0.98
2022-09-12T10:36:58.914Z,1.10
2022-09-12T10:42:01.865Z,1.52
2022-09-12T10:52:27.564Z,1.40
2022-09-12T10:57:38.623Z,1.20
2022-09-12T11:03:05.660Z,0.80
2022-09-12T11:08:28.431Z,1.00
2022-09-12T11:14:12.332Z,1.00
2022-09-12T11:19:40.990Z,1.10
2022-09-12T11:25:05.693Z,0.90
2022-09-12T11:30:17.565Z,1.10
2022-09-12T11:35:24.796Z,0.93
2022-09-12T11:40:48.811Z,1.15
2022-09-12T11:45:52.165Z,0.95
2022-09-12T11:50:54.251Z,0.80
2022-09-12T11:56:18.069Z,0.80
2022-09-12T12:01:28.889Z,1.00
2022-09-12T12:06:34.278Z,1.98
2022-09-12T12:11:43.036Z,1.50
2022-09-12T12:16:45.620Z,1.15
2022-09-12T12:21:49.621Z,0.95
2022-09-12T12:26:59.240Z,1.30
2022-09-12T12:32:04.199Z,1.30
2022-09-12T12:37:21.236Z,1.10
2022-09-12T12:42:35.295Z,0.90
2022-09-12T12:47:40.229Z,1.08
2022-09-12T12:52:48.108Z,0.90
2022-09-12T12:57:53.671Z,0.95
2022-09-12T13:03:01.720Z,0.93
2022-09-12T13:08:10.423Z,0.90
2022-09-12T13:13:25.728Z,0.70
2022-09-12T13:18:33.102Z,0.90
2022-09-12T13:23:35.652Z,0.70
2022-09-12T13:28:38.236Z,1.15
2022-09-12T13:33:52.737Z,1.10
2022-09-12T13:39:03.132Z,0.80
2022-09-12T13:44:11.352Z,1.15
2022-09-12T13:49:39.930Z,1.10
2022-09-12T13:54:46.672Z,1.25
2022-09-12T13:59:49.083Z,1.10
2022-09-12T14:05:11.579Z,1.08
2022-09-12T14:10:17.704Z,0.90
2022-09-12T14:15:27.203Z,1.60
2022-09-12T14:20:34.807Z,1.00
2022-09-12T14:25:41.535Z,1.13
2022-09-12T14:31:07.598Z,1.00
2022-09-12T14:36:15.997Z,1.10
2022-09-12T14:41:37.547Z,1.00
2022-09-12T14:46:42.000Z,1.10
2022-09-12T14:51:51.166Z,1.10
2022-09-12T14:56:59.063Z,1.00
2022-09-12T15:02:19.829Z,1.02
2022-09-12T15:07:35.007Z,1.10
2022-09-12T15:12:37.000Z,1.38
2022-09-12T15:17:39.117Z,0.88
2022-09-12T15:22:42.297Z,0.70
2022-09-12T15:27:45.870Z,0.90
2022-09-12T15:32:48.127Z,1.13
2022-09-12T15:37:50.334Z,0.80
2022-09-12T15:42:53.048Z,0.77
2022-09-12T15:47:55.746Z,0.88
2022-09-12T15:52:58.775Z,1.02
2022-09-12T15:58:06.306Z,0.82
2022-09-12T16:03:22.171Z,0.70
2022-09-12T16:08:24.584Z,0.95
2022-09-12T16:13:26.777Z,0.75
2022-09-12T16:18:29.275Z,0.80
2022-09-12T16:23:31.468Z,1.30
2022-09-12T16:28:33.896Z,1.80
2022-09-12T16:33:38.167Z,2.55
2022-09-12T16:38:47.589Z,1.13
2022-09-12T16:43:49.794Z,0.80
2022-09-12T16:48:57.839Z,0.90
2022-09-12T16:54:00.170Z,1.00
2022-09-12T16:59:04.552Z,0.98
2022-09-12T17:04:06.947Z,0.90
2022-09-12T17:09:10.898Z,1.27
2022-09-12T17:14:13.015Z,1.70
2022-09-12T17:19:20.913Z,1.48
2022-09-12T17:24:23.331Z,1.23
2022-09-12T17:29:25.362Z,0.82
2022-09-12T17:34:27.512Z,0.82
2022-09-12T17:39:29.676Z,1.05
2022-09-12T17:44:32.066Z,1.50
2022-09-12T17:49:34.176Z,1.20
2022-09-12T17:54:36.392Z,1.90
2022-09-12T17:59:38.422Z,1.58
2022-09-12T18:04:41.691Z,1.27
2022-09-12T18:09:44.143Z,1.20
2022-09-12T18:14:46.239Z,1.20
2022-09-12T18:19:53.418Z,1.10
2022-09-12T18:24:55.687Z,1.50
2022-09-12T18:30:19.509Z,2.15
2022-09-12T18:35:19.958Z,1.50
2022-09-12T18:40:22.061Z,1.27
2022-09-12T18:45:24.136Z,1.58
2022-09-12T18:50:26.186Z,1.30
2022-09-12T18:55:28.413Z,1.27
2022-09-12T19:00:30.565Z,1.33
2022-09-12T19:05:33.841Z,0.93
2022-09-12T19:10:36.311Z,0.95
2022-09-12T19:15:41.493Z,0.85
2022-09-12T19:20:43.972Z,1.02
2022-09-12T19:25:55.620Z,1.13
2022-09-12T19:30:58.025Z,1.30
2022-09-12T19:36:04.841Z,1.10
2022-09-12T19:41:12.290Z,1.42
2022-09-12T19:46:18.526Z,1.20
2022-09-12T19:51:24.127Z,1.48
2022-09-12T19:56:26.318Z,1.10
2022-09-12T20:01:29.039Z,0.95
2022-09-12T20:06:31.276Z,1.30
2022-09-12T20:11:33.348Z,0.93
2022-09-12T20:16:35.729Z,1.25
2022-09-12T20:21:38.138Z,1.25
2022-09-12T20:26:41.093Z,1.25
2022-09-12T20:36:46.791Z,1.35
2022-09-12T20:41:49.475Z,1.63
2022-09-12T20:46:51.579Z,1.23
2022-09-12T20:51:53.615Z,1.10
2022-09-12T20:56:55.805Z,1.42
2022-09-12T21:01:57.881Z,1.30
2022-09-12T21:07:00.001Z,1.08
2022-09-12T21:12:02.216Z,1.10
2022-09-12T21:17:05.548Z,1.10
2022-09-12T21:22:07.516Z,1.10
2022-09-12T21:27:09.532Z,1.38
2022-09-12T21:32:14.268Z,1.30
2022-09-12T21:37:16.550Z,1.30
2022-09-12T21:42:18.948Z,1.13
2022-09-12T21:47:21.082Z,1.00
2022-09-12T21:52:23.164Z,1.05
2022-09-12T21:57:25.480Z,1.35
2022-09-12T22:02:31.469Z,0.80
2022-09-12T22:07:34.085Z,1.13
2022-09-12T22:12:36.262Z,1.38
2022-09-12T22:17:38.339Z,1.15
2022-09-12T22:22:58.763Z,1.10
2022-09-12T22:28:00.901Z,1.00
2022-09-12T22:33:02.908Z,0.90
2022-09-12T22:38:04.921Z,1.00
2022-09-12T22:43:07.033Z,1.02
2022-09-12T22:48:09.531Z,1.23
2022-09-12T22:53:11.685Z,1.10
2022-09-12T22:58:13.643Z,1.08
2022-09-12T23:03:16.513Z,1.38
2022-09-12T23:08:19.631Z,1.30
2022-09-12T23:13:21.727Z,0.85
2022-09-12T23:18:23.754Z,1.00
2022-09-12T23:23:26.001Z,1.08
2022-09-12T23:28:28.114Z,0.90
2022-09-12T23:33:31.792Z,1.00
2022-09-12T23:38:35.492Z,1.30
2022-09-12T23:43:37.612Z,1.00
2022-09-12T23:48:39.948Z,1.00
2022-09-12T23:53:42.169Z,1.13
2022-09-12T23:58:44.308Z,1.15
